createdAt,value
2018-09-30T00:00:56.971Z,75.60
2018-09-30T00:05:59.968Z,74.90
2018-09-30T00:11:03.085Z,73.90
2018-09-30T00:16:06.132Z,72.50
2018-09-30T00:21:09.226Z,72.20
2018-09-30T00:26:18.047Z,72.20
2018-09-30T00:31:21.062Z,72.10
2018-09-30T00:36:24.236Z,71.60
2018-09-30T00:41:27.363Z,72.50
2018-09-30T00:46:30.388Z,72.20
2018-09-30T00:51:33.419Z,72.50
2018-09-30T00:56:36.579Z,72.40
2018-09-30T01:01:39.731Z,72.20
2018-09-30T01:06:42.717Z,72.40
2018-09-30T01:11:45.699Z,71.70
2018-09-30T01:16:48.702Z,72.10
2018-09-30T01:21:51.779Z,71.70
2018-09-30T01:26:54.823Z,72.10
2018-09-30T01:31:57.821Z,71.90
2018-09-30T01:37:00.842Z,70.90
2018-09-30T01:42:04.124Z,72.30
2018-09-30T01:47:07.209Z,73.10
2018-09-30T01:52:56.165Z,73.00
2018-09-30T01:57:59.335Z,73.50
2018-09-30T02:03:02.320Z,73.70
2018-09-30T02:08:05.405Z,74.20
2018-09-30T02:13:08.424Z,74.40
2018-09-30T02:18:11.386Z,74.90
2018-09-30T02:23:14.359Z,75.60
2018-09-30T02:28:17.411Z,75.60
2018-09-30T02:33:20.475Z,76.10
2018-09-30T02:38:23.471Z,77.20
2018-09-30T02:43:26.472Z,77.40
2018-09-30T02:48:29.464Z,77.80
2018-09-30T02:53:32.479Z,77.60
2018-09-30T02:58:35.463Z,79.00
2018-09-30T03:03:38.612Z,78.20
2018-09-30T03:08:47.230Z,78.60
2018-09-30T03:13:50.423Z,78.90
2018-09-30T03:18:53.518Z,78.50
2018-09-30T03:23:56.729Z,78.90
2018-09-30T03:28:59.844Z,79.70
2018-09-30T03:34:03.060Z,79.40
2018-09-30T03:39:08.002Z,79.70
2018-09-30T03:44:11.073Z,80.20
2018-09-30T03:49:14.211Z,80.60
2018-09-30T03:54:17.261Z,80.70
2018-09-30T03:59:20.255Z,80.70
2018-09-30T04:04:23.272Z,81.00
2018-09-30T04:09:26.334Z,81.00
2018-09-30T04:14:29.264Z,81.60
2018-09-30T04:19:32.263Z,81.30
2018-09-30T04:24:35.468Z,81.80
2018-09-30T04:29:38.461Z,82.10
2018-09-30T04:34:41.509Z,82.10
2018-09-30T04:39:44.509Z,82.70
2018-09-30T04:44:47.474Z,82.40
2018-09-30T04:49:50.472Z,82.50
2018-09-30T04:54:53.443Z,80.90
2018-09-30T04:59:56.411Z,80.40
2018-09-30T05:04:59.415Z,79.90
2018-09-30T05:10:02.530Z,79.10
2018-09-30T05:15:05.617Z,77.70
2018-09-30T05:20:08.666Z,77.60
2018-09-30T05:25:11.649Z,77.50
2018-09-30T05:30:14.756Z,77.80
2018-09-30T05:35:17.784Z,77.90
2018-09-30T05:40:20.804Z,77.60
2018-09-30T05:45:23.792Z,77.10
2018-09-30T05:50:26.837Z,76.90
2018-09-30T05:55:29.824Z,77.60
2018-09-30T06:00:32.913Z,78.10
2018-09-30T06:05:35.953Z,76.10
2018-09-30T06:10:38.994Z,69.10
2018-09-30T06:15:42.052Z,66.00
2018-09-30T06:20:45.153Z,64.30
2018-09-30T06:25:48.283Z,63.90
2018-09-30T06:30:51.360Z,62.60
2018-09-30T06:35:54.382Z,62.20
2018-09-30T06:40:57.380Z,61.10
2018-09-30T06:46:00.506Z,58.80
2018-09-30T06:51:03.608Z,56.40
2018-09-30T06:56:06.540Z,57.10
2018-09-30T07:01:09.551Z,57.10
2018-09-30T07:06:12.728Z,58.10
2018-09-30T07:11:15.950Z,56.70
2018-09-30T07:16:19.038Z,57.30
2018-09-30T07:21:22.367Z,56.50
2018-09-30T07:26:25.593Z,55.50
2018-09-30T07:31:29.324Z,55.40
2018-09-30T07:36:32.376Z,55.10
2018-09-30T07:41:35.716Z,53.90
2018-09-30T07:46:38.839Z,52.80
2018-09-30T07:51:41.857Z,54.00
2018-09-30T07:56:44.911Z,53.20
2018-09-30T08:01:47.988Z,54.00
2018-09-30T08:06:51.364Z,53.60
2018-09-30T08:11:54.433Z,54.70
2018-09-30T08:16:57.535Z,55.50
2018-09-30T08:22:00.855Z,55.10
2018-09-30T08:27:03.917Z,53.10
2018-09-30T08:32:07.075Z,53.20
2018-09-30T08:37:10.266Z,53.60
2018-09-30T08:42:13.427Z,53.60
2018-09-30T08:47:16.502Z,53.70
2018-09-30T08:52:19.607Z,53.70
2018-09-30T08:57:22.712Z,52.80
2018-09-30T09:02:26.014Z,53.00
2018-09-30T09:07:29.057Z,52.40
2018-09-30T09:12:32.170Z,51.50
2018-09-30T09:17:35.403Z,50.20
2018-09-30T09:22:38.457Z,50.50
2018-09-30T09:27:41.734Z,50.20
2018-09-30T09:32:45.092Z,49.50
2018-09-30T09:37:48.203Z,49.60
2018-09-30T09:42:51.258Z,48.30
2018-09-30T09:47:54.405Z,48.30
2018-09-30T09:52:57.465Z,49.00
2018-09-30T09:58:00.451Z,48.50
2018-09-30T10:03:03.507Z,46.20
2018-09-30T10:08:07.947Z,46.30
2018-09-30T10:13:10.984Z,45.90
2018-09-30T10:18:14.065Z,44.40
2018-09-30T10:23:17.143Z,43.80
2018-09-30T10:28:20.166Z,44.20
2018-09-30T10:33:23.163Z,42.80
2018-09-30T10:38:26.263Z,42.60
2018-09-30T10:43:29.302Z,42.60
2018-09-30T10:48:32.756Z,43.40
2018-09-30T10:53:35.973Z,42.10
2018-09-30T10:58:39.128Z,42.70
2018-09-30T11:09:27.534Z,42.50
2018-09-30T11:14:30.582Z,42.70
2018-09-30T11:19:33.724Z,42.30
2018-09-30T11:24:36.826Z,42.00
2018-09-30T11:29:39.855Z,41.50
2018-09-30T11:34:43.035Z,41.80
2018-09-30T11:39:46.164Z,42.60
2018-09-30T11:44:49.604Z,41.90
2018-09-30T11:49:52.810Z,41.90
2018-09-30T11:54:55.842Z,40.40
2018-09-30T11:59:58.864Z,40.90
2018-09-30T12:05:01.949Z,41.30
2018-09-30T12:10:05.103Z,41.20
2018-09-30T12:15:08.772Z,41.10
2018-09-30T12:20:11.832Z,40.60
2018-09-30T12:25:14.895Z,41.50
2018-09-30T12:30:17.993Z,41.30
2018-09-30T12:35:21.053Z,41.20
2018-09-30T12:40:24.155Z,41.20
2018-09-30T12:45:27.378Z,41.80
2018-09-30T12:50:30.566Z,42.00
2018-09-30T12:55:33.648Z,41.50
2018-09-30T13:00:36.699Z,41.90
2018-09-30T13:05:39.873Z,42.00
2018-09-30T13:10:42.920Z,41.50
2018-09-30T13:15:45.972Z,42.10
2018-09-30T13:20:49.044Z,42.00
2018-09-30T13:25:52.232Z,42.10
2018-09-30T13:30:55.562Z,42.50
2018-09-30T13:35:58.802Z,41.30
2018-09-30T13:41:02.058Z,41.20
2018-09-30T13:46:05.292Z,41.60
2018-09-30T13:51:08.395Z,41.10
2018-09-30T13:56:11.575Z,41.50
2018-09-30T14:01:14.586Z,41.50
2018-09-30T14:06:17.596Z,41.60
2018-09-30T14:11:20.663Z,41.60
2018-09-30T14:16:23.697Z,41.30
2018-09-30T14:21:26.731Z,41.10
2018-09-30T14:26:29.839Z,40.90
2018-09-30T14:31:32.867Z,40.70
2018-09-30T14:36:36.035Z,41.70
2018-09-30T14:41:39.201Z,41.20
2018-09-30T14:46:42.350Z,41.50
2018-09-30T14:51:45.387Z,41.60
2018-09-30T14:56:48.427Z,41.80
2018-09-30T15:01:51.480Z,41.90
2018-09-30T15:06:54.715Z,41.50
2018-09-30T15:11:57.853Z,42.00
2018-09-30T15:17:00.899Z,42.20
2018-09-30T15:22:04.698Z,41.90
2018-09-30T15:27:07.764Z,42.20
2018-09-30T15:32:10.770Z,42.30
2018-09-30T15:37:13.819Z,43.10
2018-09-30T15:42:17.060Z,43.00
2018-09-30T15:47:20.444Z,43.10
2018-09-30T15:52:23.525Z,43.00
2018-09-30T15:57:26.636Z,43.30
2018-09-30T16:02:29.657Z,44.00
2018-09-30T16:07:32.746Z,44.50
2018-09-30T16:12:35.791Z,44.90
2018-09-30T16:17:38.927Z,44.50
2018-09-30T16:22:42.018Z,45.00
2018-09-30T16:27:45.165Z,46.00
2018-09-30T16:32:48.178Z,46.10
2018-09-30T16:37:51.209Z,46.60
2018-09-30T16:42:54.224Z,47.10
2018-09-30T16:47:57.384Z,48.20
2018-09-30T16:53:00.520Z,49.30
2018-09-30T16:58:03.599Z,50.90
2018-09-30T17:03:06.945Z,52.50
2018-09-30T17:08:10.033Z,53.10
2018-09-30T17:13:13.100Z,53.20
2018-09-30T17:18:16.150Z,54.00
2018-09-30T17:23:19.354Z,54.30
2018-09-30T17:28:22.611Z,54.80
2018-09-30T17:33:25.724Z,55.70
2018-09-30T17:38:28.835Z,56.80
2018-09-30T17:43:32.030Z,56.80
2018-09-30T17:48:35.040Z,57.40
2018-09-30T17:53:38.114Z,57.80
2018-09-30T17:58:41.212Z,57.80
2018-09-30T18:03:44.243Z,58.00
2018-09-30T18:08:47.432Z,59.00
2018-09-30T18:13:50.408Z,59.70
2018-09-30T18:18:53.397Z,60.60
2018-09-30T18:23:56.789Z,61.50
2018-09-30T18:28:59.847Z,63.30
2018-09-30T18:34:02.783Z,63.90
2018-09-30T18:39:09.090Z,64.30
2018-09-30T18:44:12.311Z,65.00
2018-09-30T18:49:15.754Z,65.90
2018-09-30T18:54:19.232Z,66.20
2018-09-30T18:59:22.644Z,65.00
2018-09-30T19:04:26.059Z,65.40
2018-09-30T19:09:29.473Z,65.00
2018-09-30T19:14:33.088Z,64.70
2018-09-30T19:19:36.505Z,66.70
2018-09-30T19:24:39.683Z,67.70
2018-09-30T19:29:42.631Z,68.90
2018-09-30T19:34:45.581Z,69.10
2018-09-30T19:39:48.552Z,67.80
2018-09-30T19:44:51.880Z,66.40
2018-09-30T19:49:55.100Z,63.20
2018-09-30T19:54:58.320Z,59.10
2018-09-30T20:00:04.156Z,57.30
2018-09-30T20:05:07.220Z,56.50
2018-09-30T20:10:10.331Z,57.70
2018-09-30T20:15:13.375Z,58.90
2018-09-30T20:20:16.560Z,60.60
2018-09-30T20:25:19.697Z,62.90
2018-09-30T20:30:22.966Z,64.30
2018-09-30T20:35:25.983Z,64.70
2018-09-30T20:40:29.012Z,65.00
2018-09-30T20:45:32.117Z,59.80
2018-09-30T20:50:35.248Z,56.30
2018-09-30T20:55:38.296Z,54.70
2018-09-30T21:00:41.329Z,53.90
2018-09-30T21:06:48.727Z,53.80
2018-09-30T21:11:51.734Z,54.70
2018-09-30T21:16:54.795Z,53.40
2018-09-30T21:21:57.808Z,52.90
2018-09-30T21:27:02.161Z,53.10
2018-09-30T21:32:06.032Z,52.80
2018-09-30T21:37:09.138Z,52.90
2018-09-30T21:42:12.167Z,53.00
2018-09-30T21:47:15.309Z,53.60
2018-09-30T21:52:18.379Z,55.10
2018-09-30T21:57:21.376Z,56.60
2018-09-30T22:02:24.445Z,58.80
2018-09-30T22:07:27.422Z,59.50
2018-09-30T22:12:30.463Z,59.50
2018-09-30T22:17:33.596Z,60.30
2018-09-30T22:22:36.640Z,61.30
2018-09-30T22:27:39.744Z,62.00
2018-09-30T22:32:42.741Z,62.30
2018-09-30T22:37:45.779Z,63.30
2018-09-30T22:42:48.797Z,63.80
2018-09-30T22:47:51.855Z,63.50
2018-09-30T22:52:54.886Z,63.80
2018-09-30T22:57:57.900Z,63.90
2018-09-30T23:03:03.541Z,63.90
2018-09-30T23:08:06.679Z,64.00
2018-09-30T23:13:09.680Z,65.10
2018-09-30T23:18:12.715Z,65.40
2018-09-30T23:23:15.726Z,66.70
2018-09-30T23:28:18.752Z,67.20
2018-09-30T23:33:21.801Z,67.40
2018-09-30T23:38:25.593Z,68.00
2018-09-30T23:43:28.764Z,67.90
2018-09-30T23:48:31.918Z,68.90
2018-09-30T23:53:35.933Z,69.00
2018-09-30T23:58:39.008Z,68.70
